Time;durP1;ratioP1;P1;durP2;ratioP2;P2;SDS_P1;SDS_P2;PMS_P1;PMS_P2;Temp;Humidity;BMP_temperature;BMP_pressure;BME280_temperature;BME280_humidity;BME280_pressure;Samples;Min_cycle;Max_cycle;Signal;HPM_P1;HPM_P2
2022/10/01 00:00:52;;;;;;;1999.90;999.90;;;10.90;99.90;;;;;;5091359;28;20078;-65
2022/10/01 00:03:19;;;;;;;1999.90;999.90;;;10.80;99.90;;;;;;5101284;27;20040;-65
2022/10/01 00:05:45;;;;;;;1999.90;999.90;;;10.80;99.90;;;;;;5097764;28;20040;-64
2022/10/01 00:08:13;;;;;;;1999.90;999.90;;;10.80;99.90;;;;;;5108494;28;20040;-65
2022/10/01 00:10:42;;;;;;;1999.90;999.90;;;10.80;99.90;;;;;;5104543;27;20407;-65
2022/10/01 00:13:10;;;;;;;1999.90;999.90;;;10.80;99.90;;;;;;5090031;27;20093;-65
2022/10/01 00:15:39;;;;;;;1999.90;999.90;;;10.80;99.90;;;;;;5088647;28;20072;-65
2022/10/01 00:18:05;;;;;;;1999.90;999.90;;;10.80;99.90;;;;;;5092554;28;20039;-65
2022/10/01 00:20:31;;;;;;;1999.90;999.90;;;10.80;99.90;;;;;;5090949;28;20111;-65
2022/10/01 00:22:56;;;;;;;1999.90;999.90;;;10.70;99.90;;;;;;5105279;27;20560;-65
2022/10/01 00:25:24;;;;;;;1999.90;999.90;;;10.70;99.90;;;;;;5091402;28;20048;-65
2022/10/01 00:27:50;;;;;;;1999.90;999.90;;;10.80;99.90;;;;;;5094202;28;20073;-65
2022/10/01 00:30:15;;;;;;;1999.90;999.90;;;10.70;99.90;;;;;;5094948;27;20056;-65
2022/10/01 00:32:41;;;;;;;1999.90;999.90;;;10.70;99.90;;;;;;5089725;28;20118;-65
2022/10/01 00:35:11;;;;;;;1999.90;999.90;;;10.70;99.90;;;;;;5109497;27;20086;-65
2022/10/01 00:37:37;;;;;;;1999.90;999.90;;;10.80;99.90;;;;;;5092131;28;20039;-66
2022/10/01 00:40:04;;;;;;;1999.90;999.90;;;10.70;99.90;;;;;;5089478;28;20044;-65
2022/10/01 00:42:31;;;;;;;1999.90;999.90;;;10.70;99.90;;;;;;5093670;28;20086;-65
2022/10/01 00:44:57;;;;;;;1999.90;999.90;;;10.70;99.90;;;;;;5105103;27;20055;-66
2022/10/01 00:47:33;;;;;;;1999.90;999.90;;;10.70;99.90;;;;;;5090936;27;20475;-65
2022/10/01 00:50:09;;;;;;;1999.90;999.90;;;10.70;99.90;;;;;;5091215;27;20052;-66
2022/10/01 00:52:38;;;;;;;1999.90;999.90;;;10.70;99.90;;;;;;5089876;28;20043;-65
2022/10/01 00:55:10;;;;;;;1999.90;999.90;;;10.70;99.90;;;;;;5096050;28;20149;-66
2022/10/01 00:57:37;;;;;;;1999.90;999.90;;;10.70;99.90;;;;;;5099737;27;20039;-66
2022/10/01 01:00:05;;;;;;;1999.90;999.90;;;10.70;99.90;;;;;;5108603;27;20039;-65
2022/10/01 01:02:31;;;;;;;1999.90;999.90;;;10.70;99.90;;;;;;5112425;27;20063;-66
2022/10/01 01:04:58;;;;;;;1999.90;999.90;;;10.70;99.90;;;;;;5107751;27;20078;-66
2022/10/01 01:07:23;;;;;;;1999.90;999.90;;;10.70;99.90;;;;;;5104707;27;20083;-66
2022/10/01 01:09:52;;;;;;;1999.90;999.90;;;10.70;99.90;;;;;;5106409;28;20096;-65
2022/10/01 01:12:35;;;;;;;1999.90;999.90;;;10.70;99.90;;;;;;5079198;27;20438;-66
2022/10/01 01:15:13;;;;;;;1999.90;999.90;;;10.60;99.90;;;;;;5109695;27;20035;-66
2022/10/01 01:18:08;;;;;;;1999.90;999.90;;;10.70;99.90;;;;;;5091474;27;20473;-65
2022/10/01 01:20:55;;;;;;;1999.90;999.90;;;10.70;99.90;;;;;;5096022;27;20399;-66
2022/10/01 01:23:35;;;;;;;1999.90;999.90;;;10.60;99.90;;;;;;5101766;27;20036;-66
2022/10/01 01:26:24;;;;;;;1999.90;999.90;;;10.60;99.90;;;;;;5103642;28;20039;-66
2022/10/01 01:28:55;;;;;;;1999.90;999.90;;;10.60;99.90;;;;;;5104784;27;20042;-67
2022/10/01 01:31:32;;;;;;;1999.90;999.90;;;10.70;99.90;;;;;;5089038;28;20104;-66
2022/10/01 01:34:00;;;;;;;1999.90;999.90;;;10.60;99.90;;;;;;5072653;28;20468;-67
2022/10/01 01:36:36;;;;;;;1999.90;999.90;;;10.60;99.90;;;;;;5072655;28;20077;-66
2022/10/01 01:39:07;;;;;;;1999.90;999.90;;;10.60;99.90;;;;;;5089760;28;20500;-66
2022/10/01 01:41:37;;;;;;;1999.90;999.90;;;10.60;99.90;;;;;;5072897;28;20114;-66
2022/10/01 01:44:07;;;;;;;1999.90;999.90;;;10.60;99.90;;;;;;5089091;28;20090;-67
2022/10/01 01:46:35;;;;;;;1999.90;999.90;;;10.60;99.90;;;;;;5090936;28;20044;-67
2022/10/01 01:49:03;;;;;;;1999.90;999.90;;;10.70;99.90;;;;;;5074291;28;20068;-66
2022/10/01 01:51:44;;;;;;;1999.90;999.90;;;10.60;99.90;;;;;;5099405;28;20085;-67
2022/10/01 01:54:11;;;;;;;1999.90;999.90;;;10.60;99.90;;;;;;5069811;28;20050;-67
2022/10/01 01:56:37;;;;;;;1999.90;999.90;;;10.60;99.90;;;;;;5088505;28;20047;-68
2022/10/01 01:59:03;;;;;;;1999.90;999.90;;;10.60;99.90;;;;;;5092388;28;20123;-68
2022/10/01 02:01:40;;;;;;;1999.90;999.90;;;10.60;99.90;;;;;;5092883;27;20496;-69
2022/10/01 02:04:16;;;;;;;1999.90;999.90;;;10.60;99.90;;;;;;5083775;28;20043;-68
2022/10/01 02:07:15;;;;;;;1999.90;999.90;;;10.60;99.90;;;;;;5092004;28;20043;-68
2022/10/01 02:10:06;;;;;;;1999.90;999.90;;;10.60;99.90;;;;;;5097328;27;20507;-68
2022/10/01 02:12:41;;;;;;;1999.90;999.90;;;10.60;99.90;;;;;;5071853;28;20398;-68
2022/10/01 02:15:36;;;;;;;1999.90;999.90;;;10.60;99.90;;;;;;5088559;28;20044;-69
2022/10/01 02:18:29;;;;;;;1999.90;999.90;;;10.60;99.90;;;;;;5087055;28;20498;-68
2022/10/01 02:21:40;;;;;;;1999.90;999.90;;;10.60;99.90;;;;;;5085228;28;20035;-68
2022/10/01 02:24:14;;;;;;;1999.90;999.90;;;10.60;99.90;;;;;;5086117;28;20134;-68
2022/10/01 02:26:43;;;;;;;1999.90;999.90;;;10.60;99.90;;;;;;5090236;27;20039;-69
2022/10/01 02:29:13;;;;;;;1999.90;999.90;;;10.60;99.90;;;;;;5097564;27;20044;-68
2022/10/01 02:31:40;;;;;;;1999.90;999.90;;;10.60;99.90;;;;;;5087177;28;20493;-68
2022/10/01 02:34:07;;;;;;;1999.90;999.90;;;10.60;99.90;;;;;;5097286;28;20535;-68
2022/10/01 02:36:36;;;;;;;1999.90;999.90;;;10.60;99.90;;;;;;5108675;27;20152;-68
2022/10/01 02:39:03;;;;;;;1999.90;999.90;;;10.70;99.90;;;;;;5098939;28;20047;-68
2022/10/01 02:41:34;;;;;;;1999.90;999.90;;;10.70;99.90;;;;;;5104012;27;20041;-68
2022/10/01 02:44:07;;;;;;;1999.90;999.90;;;10.70;99.90;;;;;;5078437;28;20060;-68
2022/10/01 02:46:47;;;;;;;1999.90;999.90;;;10.70;99.90;;;;;;5088545;28;20053;-68
2022/10/01 02:49:13;;;;;;;1999.90;999.90;;;10.70;99.90;;;;;;5089775;28;20046;-68
2022/10/01 02:51:52;;;;;;;1999.90;999.90;;;10.70;99.90;;;;;;5088962;28;20088;-67
2022/10/01 02:54:44;;;;;;;1999.90;999.90;;;10.70;99.90;;;;;;5091040;28;20077;-67
2022/10/01 02:57:23;;;;;;;1999.90;999.90;;;10.70;99.90;;;;;;5101881;28;20501;-68
2022/10/01 03:00:20;;;;;;;1999.90;999.90;;;10.80;99.90;;;;;;5104446;28;20035;-68
2022/10/01 03:02:46;;;;;;;1999.90;999.90;;;10.80;99.90;;;;;;5005186;28;20434;-68
2022/10/01 03:05:12;;;;;;;1999.90;999.90;;;10.80;99.90;;;;;;5037204;28;20183;-67
2022/10/01 03:07:38;;;;;;;1999.90;999.90;;;10.80;99.90;;;;;;4993810;28;20132;-67
2022/10/01 03:10:06;;;;;;;1999.90;999.90;;;10.80;99.90;;;;;;5008027;28;20054;-67
2022/10/01 03:12:32;;;;;;;1999.90;999.90;;;10.80;99.90;;;;;;5014537;28;20490;-68
2022/10/01 03:14:57;;;;;;;1999.90;999.90;;;10.80;99.90;;;;;;5028632;28;20076;-68
2022/10/01 03:17:23;;;;;;;1999.90;999.90;;;10.80;99.90;;;;;;5011956;28;20045;-67
2022/10/01 03:19:49;;;;;;;1999.90;999.90;;;10.90;99.90;;;;;;5026818;28;20091;-67
2022/10/01 03:22:17;;;;;;;1999.90;999.90;;;10.90;99.90;;;;;;5011833;28;20245;-67
2022/10/01 03:24:43;;;;;;;1999.90;999.90;;;10.90;99.90;;;;;;5026623;28;20391;-67
2022/10/01 03:27:09;;;;;;;1999.90;999.90;;;10.90;99.90;;;;;;5011091;28;20209;-68
2022/10/01 03:29:35;;;;;;;1999.90;999.90;;;10.90;99.90;;;;;;5009511;28;20095;-68
2022/10/01 03:32:01;;;;;;;1999.90;999.90;;;10.90;99.90;;;;;;5009376;28;20049;-67
2022/10/01 03:34:26;;;;;;;1999.90;999.90;;;10.90;99.90;;;;;;5006192;28;20177;-68
2022/10/01 03:36:52;;;;;;;1999.90;999.90;;;10.90;99.90;;;;;;5010383;28;20622;-67
2022/10/01 03:39:18;;;;;;;1999.90;999.90;;;10.90;99.90;;;;;;5078253;28;20070;-67
2022/10/01 03:41:44;;;;;;;1999.90;999.90;;;11.00;99.90;;;;;;5089018;28;20040;-67
2022/10/01 03:44:09;;;;;;;1999.90;999.90;;;10.90;99.90;;;;;;5097295;28;20048;-67
2022/10/01 03:46:35;;;;;;;1999.90;999.90;;;11.00;99.90;;;;;;5105002;27;20036;-67
2022/10/01 03:49:01;;;;;;;1999.90;999.90;;;11.00;99.90;;;;;;5095905;27;20082;-66
2022/10/01 03:51:28;;;;;;;1999.90;999.90;;;11.00;99.90;;;;;;5102802;27;20046;-67
2022/10/01 03:53:55;;;;;;;1999.90;999.90;;;11.00;99.90;;;;;;5090069;28;20055;-67
2022/10/01 03:56:20;;;;;;;1999.90;999.90;;;11.00;99.90;;;;;;5091566;28;20047;-66
2022/10/01 03:58:46;;;;;;;1999.90;999.90;;;11.10;99.90;;;;;;5092053;28;20044;-67
2022/10/01 04:01:11;;;;;;;1999.90;999.90;;;11.10;99.90;;;;;;5111356;27;20441;-67
2022/10/01 04:03:37;;;;;;;1999.90;999.90;;;11.10;99.90;;;;;;5089228;28;20054;-67
2022/10/01 04:06:03;;;;;;;1999.90;999.90;;;11.10;99.90;;;;;;5109362;27;20737;-66
2022/10/01 04:08:28;;;;;;;1999.90;999.90;;;11.10;99.90;;;;;;5100136;28;20050;-67
2022/10/01 04:10:54;;;;;;;1999.90;999.90;;;11.10;99.90;;;;;;5110694;27;20043;-67
2022/10/01 04:13:19;;;;;;;1999.90;999.90;;;11.10;99.90;;;;;;5093543;28;20484;-67
2022/10/01 04:15:47;;;;;;;1999.90;999.90;;;11.20;99.90;;;;;;5095862;28;20062;-67
2022/10/01 04:18:12;;;;;;;1999.90;999.90;;;11.10;99.90;;;;;;5084633;28;20036;-67
2022/10/01 04:20:38;;;;;;;1999.90;999.90;;;11.20;99.90;;;;;;5101824;27;20039;-67
2022/10/01 04:23:04;;;;;;;1999.90;999.90;;;11.20;99.90;;;;;;5090665;28;20480;-67
2022/10/01 04:25:30;;;;;;;1999.90;999.90;;;11.20;99.90;;;;;;5091812;28;20093;-66
2022/10/01 04:28:01;;;;;;;1999.90;999.90;;;11.20;99.90;;;;;;5111345;27;20027;-67
2022/10/01 04:30:30;;;;;;;1999.90;999.90;;;11.20;99.90;;;;;;5103355;28;20040;-67
2022/10/01 04:32:56;;;;;;;1999.90;999.90;;;11.20;99.90;;;;;;5107633;28;20370;-67
2022/10/01 04:35:22;;;;;;;1999.90;999.90;;;11.20;99.90;;;;;;5091410;28;20081;-67
2022/10/01 04:37:54;;;;;;;1999.90;999.90;;;11.20;99.90;;;;;;5090691;28;20039;-66
2022/10/01 04:40:20;;;;;;;1999.90;999.90;;;11.20;99.90;;;;;;5085233;28;20051;-66
2022/10/01 04:42:46;;;;;;;1999.90;999.90;;;11.20;99.90;;;;;;5102167;28;20088;-67
2022/10/01 04:45:12;;;;;;;1999.90;999.90;;;11.20;99.90;;;;;;5097502;28;20517;-67
2022/10/01 04:47:45;;;;;;;1999.90;999.90;;;11.30;99.90;;;;;;5095062;28;20118;-66
2022/10/01 04:50:11;;;;;;;1999.90;999.90;;;11.30;99.90;;;;;;5086188;28;20059;-67
2022/10/01 04:52:37;;;;;;;1999.90;999.90;;;11.30;99.90;;;;;;5090862;27;20407;-66
2022/10/01 04:55:02;;;;;;;1999.90;999.90;;;11.40;99.90;;;;;;5102784;27;20039;-66
2022/10/01 04:57:28;;;;;;;1999.90;999.90;;;11.40;99.90;;;;;;5108441;27;20046;-67
2022/10/01 04:59:54;;;;;;;1999.90;999.90;;;11.40;99.90;;;;;;5095999;28;20039;-66
2022/10/01 05:02:20;;;;;;;1999.90;999.90;;;11.40;99.90;;;;;;5090322;28;20386;-66
2022/10/01 05:04:46;;;;;;;1999.90;999.90;;;11.40;99.90;;;;;;5085451;28;20052;-66
2022/10/01 05:07:12;;;;;;;1999.90;999.90;;;11.40;99.90;;;;;;5089727;28;20126;-67
2022/10/01 05:09:37;;;;;;;1999.90;999.90;;;11.40;99.90;;;;;;5102087;27;20135;-66
2022/10/01 05:12:03;;;;;;;1999.90;999.90;;;11.40;99.90;;;;;;5087952;28;20512;-66
2022/10/01 05:14:29;;;;;;;1999.90;999.90;;;11.50;99.90;;;;;;5102105;28;20397;-66
2022/10/01 05:16:54;;;;;;;1999.90;999.90;;;11.40;99.90;;;;;;5094138;28;20578;-66
2022/10/01 05:19:20;;;;;;;1999.90;999.90;;;11.50;99.90;;;;;;5089058;28;20043;-66
2022/10/01 05:21:45;;;;;;;1999.90;999.90;;;11.50;99.90;;;;;;5109585;27;20042;-66
2022/10/01 05:24:11;;;;;;;1999.90;999.90;;;11.50;99.90;;;;;;5107721;27;20043;-67
2022/10/01 05:26:37;;;;;;;1999.90;999.90;;;11.50;99.90;;;;;;5100542;27;20492;-67
2022/10/01 05:29:03;;;;;;;1999.90;999.90;;;11.50;99.90;;;;;;5092303;28;20440;-66
2022/10/01 05:31:29;;;;;;;1999.90;999.90;;;11.50;99.90;;;;;;5091578;28;20085;-66
2022/10/01 05:33:54;;;;;;;1999.90;999.90;;;11.50;99.90;;;;;;5099550;28;20470;-66
2022/10/01 05:36:20;;;;;;;1999.90;999.90;;;11.60;99.90;;;;;;5105622;27;20035;-66
2022/10/01 05:38:51;;;;;;;1999.90;999.90;;;11.60;99.90;;;;;;5107734;27;20042;-66
2022/10/01 05:41:17;;;;;;;1999.90;999.90;;;11.60;99.90;;;;;;5106583;27;20031;-67
2022/10/01 05:43:42;;;;;;;1999.90;999.90;;;11.60;99.90;;;;;;5091512;28;20603;-67
2022/10/01 05:46:09;;;;;;;1999.90;999.90;;;11.70;99.90;;;;;;5088995;28;20050;-67
2022/10/01 05:48:36;;;;;;;1999.90;999.90;;;11.70;99.90;;;;;;5086701;28;20044;-66
2022/10/01 05:51:05;;;;;;;1999.90;999.90;;;11.70;99.90;;;;;;5089856;28;20523;-67
2022/10/01 05:53:31;;;;;;;1999.90;999.90;;;11.70;99.90;;;;;;5091947;28;20050;-67
2022/10/01 05:56:01;;;;;;;1999.90;999.90;;;11.80;99.90;;;;;;5089699;28;20622;-67
2022/10/01 05:58:26;;;;;;;1999.90;999.90;;;11.80;99.90;;;;;;5090389;28;20043;-67
2022/10/01 06:00:53;;;;;;;1999.90;999.90;;;11.80;99.90;;;;;;5086069;28;20039;-67
2022/10/01 06:03:19;;;;;;;1999.90;999.90;;;11.80;99.90;;;;;;5071833;28;20047;-67
2022/10/01 06:05:45;;;;;;;1999.90;999.90;;;11.90;99.90;;;;;;5086318;28;20036;-67
2022/10/01 06:08:11;;;;;;;1999.90;999.90;;;11.90;99.90;;;;;;5107312;28;20039;-67
2022/10/01 06:10:36;;;;;;;1999.90;999.90;;;11.90;99.90;;;;;;5078038;28;20385;-67
2022/10/01 06:13:04;;;;;;;1999.90;999.90;;;12.00;99.90;;;;;;5107120;27;20077;-67
2022/10/01 06:15:33;;;;;;;1999.90;999.90;;;12.00;99.90;;;;;;5107866;27;20044;-67
2022/10/01 06:18:02;;;;;;;1999.90;999.90;;;12.00;99.90;;;;;;5098925;27;20047;-66
2022/10/01 06:20:28;;;;;;;1999.90;999.90;;;12.00;99.90;;;;;;5099648;28;20055;-67
2022/10/01 06:22:56;;;;;;;1999.90;999.90;;;12.10;99.90;;;;;;5072316;28;20084;-67
2022/10/01 06:25:22;;;;;;;1999.90;999.90;;;12.20;99.90;;;;;;5084461;27;20080;-67
2022/10/01 06:27:56;;;;;;;1999.90;999.90;;;12.20;99.90;;;;;;5090872;28;20456;-66
2022/10/01 06:30:25;;;;;;;1999.90;999.90;;;12.30;99.90;;;;;;5082233;28;20066;-67
2022/10/01 06:32:52;;;;;;;1999.90;999.90;;;12.30;99.90;;;;;;5092009;28;20039;-68
2022/10/01 06:35:19;;;;;;;1999.90;999.90;;;12.40;99.90;;;;;;5108412;27;20521;-66
2022/10/01 06:37:45;;;;;;;1999.90;999.90;;;12.50;99.90;;;;;;5091724;28;20118;-67
2022/10/01 06:40:11;;;;;;;1999.90;999.90;;;12.50;99.90;;;;;;5059233;28;20126;-67
2022/10/01 06:42:36;;;;;;;1999.90;999.90;;;12.50;99.90;;;;;;5101126;28;20049;-66
2022/10/01 06:45:02;;;;;;;1999.90;999.90;;;12.60;99.90;;;;;;5106062;27;20051;-67
2022/10/01 06:47:28;;;;;;;1999.90;999.90;;;12.60;99.90;;;;;;5085932;28;20040;-67
2022/10/01 06:49:53;;;;;;;1999.90;999.90;;;12.60;99.90;;;;;;5089469;28;20043;-67
2022/10/01 06:55:03;;;;;;;1999.90;999.90;;;12.70;99.90;;;;;;5101962;28;20048;-66
2022/10/01 06:57:29;;;;;;;1999.90;999.90;;;12.90;99.90;;;;;;5094357;28;20043;-67
2022/10/01 06:59:57;;;;;;;1999.90;999.90;;;13.00;99.90;;;;;;5088467;28;20112;-66
2022/10/01 07:02:27;;;;;;;1999.90;999.90;;;13.10;99.90;;;;;;5105986;28;20071;-67
2022/10/01 07:04:57;;;;;;;1999.90;999.90;;;13.10;99.90;;;;;;5107025;28;20074;-67
2022/10/01 07:07:34;;;;;;;1999.90;999.90;;;13.20;99.90;;;;;;5087417;28;20044;-66
2022/10/01 07:10:01;;;;;;;1999.90;999.90;;;13.20;99.90;;;;;;5104970;28;20058;-66
2022/10/01 07:12:26;;;;;;;1999.90;999.90;;;13.20;99.90;;;;;;5074755;28;20043;-66
2022/10/01 07:14:52;;;;;;;1999.90;999.90;;;13.20;99.90;;;;;;5088907;28;20032;-67
2022/10/01 07:17:18;;;;;;;1999.90;999.90;;;13.20;99.90;;;;;;5108227;28;20044;-67
2022/10/01 07:19:43;;;;;;;1999.90;999.90;;;13.20;99.90;;;;;;5092250;28;20039;-67
2022/10/01 07:22:09;;;;;;;1999.90;999.90;;;13.10;99.90;;;;;;5086542;28;20039;-67
2022/10/01 07:24:35;;;;;;;1999.90;999.90;;;13.10;99.90;;;;;;5106616;28;20553;-67
2022/10/01 07:27:00;;;;;;;1999.90;999.90;;;13.10;99.90;;;;;;5093936;28;20039;-67
2022/10/01 07:29:26;;;;;;;1999.90;999.90;;;13.00;99.90;;;;;;5103376;28;20043;-66
2022/10/01 07:31:59;;;;;;;1999.90;999.90;;;13.00;99.90;;;;;;5086766;28;20048;-66
2022/10/01 07:34:25;;;;;;;1999.90;999.90;;;12.90;99.90;;;;;;5072254;28;20051;-66
2022/10/01 07:36:51;;;;;;;1999.90;999.90;;;12.90;99.90;;;;;;5092510;28;20507;-66
2022/10/01 07:39:16;;;;;;;1999.90;999.90;;;12.90;99.90;;;;;;5099099;28;20039;-67
2022/10/01 07:41:42;;;;;;;1999.90;999.90;;;12.90;99.90;;;;;;5070115;28;20070;-66
2022/10/01 07:44:10;;;;;;;1999.90;999.90;;;13.00;99.90;;;;;;5091586;28;20059;-66
2022/10/01 07:46:37;;;;;;;1999.90;999.90;;;13.10;99.90;;;;;;5088168;28;20130;-66
2022/10/01 07:49:03;;;;;;;1999.90;999.90;;;13.20;99.90;;;;;;5094476;28;20036;-66
2022/10/01 07:51:29;;;;;;;1999.90;999.90;;;13.30;99.90;;;;;;5103090;28;20493;-67
2022/10/01 07:53:55;;;;;;;1999.90;999.90;;;13.40;99.90;;;;;;5080087;28;20198;-66
2022/10/01 07:56:21;;;;;;;1999.90;999.90;;;13.50;99.90;;;;;;5096086;28;20513;-66
2022/10/01 07:58:47;;;;;;;1999.90;999.90;;;13.50;99.90;;;;;;5092277;27;20483;-66
2022/10/01 08:01:12;;;;;;;1999.90;999.90;;;13.60;99.90;;;;;;5085863;28;20123;-66
2022/10/01 08:03:38;;;;;;;1999.90;999.90;;;13.70;99.90;;;;;;5090452;28;20059;-67
2022/10/01 08:06:05;;;;;;;1999.90;999.90;;;13.80;99.90;;;;;;5088495;28;20051;-67
2022/10/01 08:08:31;;;;;;;1999.90;999.90;;;13.80;99.90;;;;;;5092431;28;20039;-66
2022/10/01 08:10:57;;;;;;;1999.90;999.90;;;13.90;99.90;;;;;;5092098;28;20043;-67
2022/10/01 08:13:23;;;;;;;1999.90;999.90;;;13.90;99.90;;;;;;5110255;27;20105;-67
2022/10/01 08:15:52;;;;;;;1999.90;999.90;;;14.00;99.90;;;;;;5104273;28;20048;-66
2022/10/01 08:18:19;;;;;;;1999.90;999.90;;;14.10;99.90;;;;;;5094758;28;20568;-67
2022/10/01 08:20:44;;;;;;;1999.90;999.90;;;14.20;99.90;;;;;;5105800;27;20123;-66
2022/10/01 08:23:13;;;;;;;1999.90;999.90;;;14.70;99.90;;;;;;5110971;27;20154;-66
2022/10/01 08:25:40;;;;;;;1999.90;999.90;;;15.00;99.90;;;;;;5109570;27;20043;-66
2022/10/01 08:28:07;;;;;;;1999.90;999.90;;;15.10;99.90;;;;;;5109167;27;20044;-67
2022/10/01 08:30:35;;;;;;;1999.90;999.90;;;15.10;99.90;;;;;;5108464;27;20043;-66
2022/10/01 08:33:02;;;;;;;1999.90;999.90;;;15.20;99.90;;;;;;5055978;28;20046;-66
2022/10/01 08:35:29;;;;;;;1999.90;999.90;;;15.10;99.90;;;;;;5088744;27;20445;-66
2022/10/01 08:37:59;;;;;;;1999.90;999.90;;;15.20;99.90;;;;;;5086410;28;20440;-66
2022/10/01 08:40:24;;;;;;;1999.90;999.90;;;15.70;99.90;;;;;;5091551;28;20127;-66
2022/10/01 08:42:58;;;;;;;1999.90;999.90;;;16.00;99.90;;;;;;5074522;28;20118;-66
2022/10/01 08:45:51;;;;;;;1999.90;999.90;;;15.90;99.90;;;;;;5105973;27;20062;-66
2022/10/01 08:48:39;;;;;;;1999.90;999.90;;;15.90;99.90;;;;;;5089798;28;20135;-66
2022/10/01 08:51:31;;;;;;;1999.90;999.90;;;16.30;99.90;;;;;;5088160;28;20047;-66
2022/10/01 08:54:32;;;;;;;1999.90;999.90;;;16.60;99.90;;;;;;5098578;28;20584;-66
2022/10/01 08:57:01;;;;;;;1999.90;999.90;;;16.80;99.90;;;;;;5084029;28;20297;-66
2022/10/01 08:59:48;;;;;;;1999.90;999.90;;;16.40;99.90;;;;;;5109855;27;20040;-66
2022/10/01 09:02:31;;;;;;;1999.90;999.90;;;16.10;99.90;;;;;;5090491;28;20044;-65
2022/10/01 09:04:58;;;;;;;;;;;16.20;99.90;;;;;;5095320;28;20102;-66
2022/10/01 09:08:05;;;;;;;1999.90;999.90;;;16.80;99.90;;;;;;5093677;28;19919;-66
2022/10/01 09:10:48;;;;;;;1999.90;999.90;;;16.70;99.90;;;;;;5107112;27;20083;-66
2022/10/01 09:13:29;;;;;;;1999.90;999.90;;;16.70;99.90;;;;;;5090325;28;20438;-65
2022/10/01 09:16:08;;;;;;;1999.90;999.90;;;17.40;99.90;;;;;;5097903;27;20048;-66
2022/10/01 09:19:06;;;;;;;1999.90;999.90;;;18.00;99.90;;;;;;5095538;28;20141;-65
2022/10/01 09:21:55;;;;;;;1999.90;999.90;;;18.00;99.90;;;;;;5065369;27;20047;-66
2022/10/01 09:24:26;;;;;;;1999.90;999.90;;;17.50;99.90;;;;;;5102478;27;20043;-65
2022/10/01 09:26:52;;;;;;;1999.90;999.90;;;17.00;99.90;;;;;;5103077;28;20032;-65
2022/10/01 09:29:53;;;;;;;1999.90;999.90;;;16.60;99.90;;;;;;5089669;28;20554;-66
2022/10/01 09:32:24;;;;;;;1999.90;999.90;;;16.30;99.90;;;;;;5106555;27;20043;-65
2022/10/01 09:34:50;;;;;;;1999.90;999.90;;;16.20;99.90;;;;;;5098889;28;20451;-66
2022/10/01 09:37:50;;;;;;;1999.90;999.90;;;16.50;99.90;;;;;;5090081;28;20412;-66
2022/10/01 09:40:31;;;;;;;1999.90;999.90;;;16.80;99.90;;;;;;5082409;28;20048;-66
2022/10/01 09:42:57;;;;;;;1999.90;999.90;;;16.90;99.90;;;;;;5095388;28;20040;-66
2022/10/01 09:45:24;;;;;;;1999.90;999.90;;;16.80;99.90;;;;;;5068120;28;20055;-66
2022/10/01 09:47:53;;;;;;;1999.90;999.90;;;16.90;99.90;;;;;;5086687;28;20168;-66
2022/10/01 09:50:55;;;;;;;1999.90;999.90;;;17.20;99.90;;;;;;5066655;28;20082;-66
2022/10/01 09:53:28;;;;;;;1999.90;999.90;;;17.10;99.90;;;;;;5084693;28;20127;-65
2022/10/01 09:56:00;;;;;;;1999.90;999.90;;;16.60;99.90;;;;;;5085165;28;20045;-66
2022/10/01 09:58:28;;;;;;;1999.90;999.90;;;16.30;99.90;;;;;;5084429;28;20047;-66
2022/10/01 10:00:55;;;;;;;1999.90;999.90;;;15.90;99.90;;;;;;5081587;28;20497;-66
2022/10/01 10:03:29;;;;;;;1999.90;999.90;;;15.60;99.90;;;;;;5088438;28;20122;-66
2022/10/01 10:05:56;;;;;;;1999.90;999.90;;;15.30;99.90;;;;;;5080979;28;20044;-65
2022/10/01 10:08:39;;;;;;;1999.90;999.90;;;15.10;99.90;;;;;;5085790;28;20127;-64
2022/10/01 10:11:09;;;;;;;1999.90;999.90;;;14.60;99.90;;;;;;5083264;28;20048;-65
2022/10/01 10:13:49;;;;;;;1999.90;999.90;;;14.10;99.90;;;;;;5087274;28;20047;-65
2022/10/01 10:16:20;;;;;;;1999.90;999.90;;;13.50;99.90;;;;;;5079006;28;20098;-65
2022/10/01 10:18:51;;;;;;;1999.90;999.90;;;13.10;99.90;;;;;;5086481;28;20068;-65
2022/10/01 10:21:21;;;;;;;1999.90;999.90;;;12.90;99.90;;;;;;5083795;28;20044;-65
2022/10/01 10:24:01;;;;;;;1999.90;999.90;;;12.70;99.90;;;;;;5080718;28;20036;-65
2022/10/01 10:26:31;;;;;;;1999.90;999.90;;;12.70;99.90;;;;;;5086708;28;20040;-66
2022/10/01 10:29:00;;;;;;;1999.90;999.90;;;12.80;99.90;;;;;;5085120;28;20040;-65
2022/10/01 10:31:34;;;;;;;1999.90;999.90;;;13.00;99.90;;;;;;5082069;28;20044;-65
2022/10/01 10:34:17;;;;;;;1999.90;999.90;;;13.30;99.90;;;;;;5081504;28;20554;-65
2022/10/01 10:36:44;;;;;;;1999.90;999.90;;;13.80;99.90;;;;;;5083838;28;20036;-65
2022/10/01 10:39:28;;;;;;;1999.90;999.90;;;14.20;99.90;;;;;;5064443;28;20047;-65
2022/10/01 10:41:55;;;;;;;1999.90;999.90;;;14.40;99.90;;;;;;5080509;28;20777;-65
2022/10/01 10:44:23;;;;;;;1999.90;999.90;;;14.50;99.90;;;;;;5086384;28;20048;-65
2022/10/01 10:46:50;;;;;;;1999.90;999.90;;;14.60;99.90;;;;;;5107476;27;20052;-65
2022/10/01 10:49:30;;;;;;;1999.90;999.90;;;14.80;99.90;;;;;;5090271;28;20054;-65
2022/10/01 10:51:59;;;;;;;1999.90;999.90;;;15.20;99.90;;;;;;5105580;28;20047;-66
2022/10/01 10:54:39;;;;;;;1999.90;999.90;;;15.40;99.90;;;;;;5108706;28;20131;-65
2022/10/01 10:57:30;;;;;;;1999.90;999.90;;;15.40;99.90;;;;;;5118148;27;20044;-65
2022/10/01 11:00:30;;;;;;;1999.90;999.90;;;15.20;99.90;;;;;;5087205;28;20070;-65
2022/10/01 11:03:00;;;;;;;1999.90;999.90;;;15.00;99.90;;;;;;5109666;28;20049;-65
2022/10/01 11:05:28;;;;;;;1999.90;999.90;;;14.90;99.90;;;;;;5100538;28;20082;-65
2022/10/01 11:07:58;;;;;;;1999.90;999.90;;;14.80;99.90;;;;;;5113522;28;20039;-65
2022/10/01 11:10:46;;;;;;;1999.90;999.90;;;14.80;99.90;;;;;;5107141;28;20054;-65
2022/10/01 11:13:36;;;;;;;1999.90;999.90;;;14.90;99.90;;;;;;5094445;28;20044;-65
2022/10/01 11:16:30;;;;;;;1999.90;999.90;;;15.00;99.90;;;;;;5088488;28;20117;-66
2022/10/01 11:19:33;;;;;;;1999.90;999.90;;;15.30;99.90;;;;;;5080248;28;20036;-65
2022/10/01 11:22:15;;;;;;;1999.90;999.90;;;15.70;99.90;;;;;;5105979;28;20036;-65
2022/10/01 11:25:13;;;;;;;1999.90;999.90;;;16.00;99.90;;;;;;5104296;28;20441;-65
2022/10/01 11:28:06;;;;;;;1999.90;999.90;;;16.20;99.90;;;;;;5089658;28;20118;-65
2022/10/01 11:30:55;;;;;;;1999.90;999.90;;;16.50;99.90;;;;;;5087964;28;20442;-65
2022/10/01 11:33:56;;;;;;;1999.90;999.90;;;16.60;99.90;;;;;;5094486;27;20043;-65
2022/10/01 11:36:51;;;;;;;1999.90;999.90;;;16.80;99.90;;;;;;5098279;28;20044;-65
2022/10/01 11:39:19;;;;;;;1999.90;999.90;;;16.80;99.90;;;;;;5107683;27;20089;-65
2022/10/01 11:41:50;;;;;;;1999.90;999.90;;;17.00;99.90;;;;;;5088916;28;20042;-65
2022/10/01 11:44:34;;;;;;;1999.90;999.90;;;17.20;99.90;;;;;;5071351;28;20416;-65
2022/10/01 11:47:07;;;;;;;1999.90;999.90;;;17.10;99.90;;;;;;5108138;27;20054;-65
2022/10/01 11:50:01;;;;;;;1999.90;999.90;;;17.00;99.90;;;;;;5088938;28;20073;-65
2022/10/01 11:52:54;;;;;;;1999.90;999.90;;;16.90;99.90;;;;;;5092372;28;20393;-65
2022/10/01 12:01:16;;;;;;;1999.90;999.90;;;16.50;99.90;;;;;;5104606;27;20047;-65
2022/10/01 12:03:58;;;;;;;1999.90;999.90;;;16.50;99.90;;;;;;5092249;28;20408;-65
2022/10/01 12:06:43;;;;;;;1999.90;999.90;;;16.50;99.90;;;;;;5106399;28;20052;-65
2022/10/01 12:09:28;;;;;;;1999.90;999.90;;;16.40;99.90;;;;;;5109616;27;20043;-65
2022/10/01 12:11:59;;;;;;;1999.90;999.90;;;16.30;99.90;;;;;;5110871;27;20031;-65
2022/10/01 12:14:51;;;;;;;1999.90;999.90;;;16.30;99.90;;;;;;5108846;27;20039;-65
2022/10/01 12:17:51;;;;;;;1999.90;999.90;;;16.30;99.90;;;;;;5112779;27;20043;-65
2022/10/01 12:20:26;;;;;;;1999.90;999.90;;;16.40;99.90;;;;;;5103560;28;20092;-65
2022/10/01 12:22:53;;;;;;;1999.90;999.90;;;16.40;99.90;;;;;;5109363;27;20032;-65
2022/10/01 12:25:27;;;;;;;1999.90;999.90;;;16.40;99.90;;;;;;5106217;27;20055;-65
2022/10/01 12:27:53;;;;;;;1999.90;999.90;;;16.50;99.90;;;;;;5111331;27;20149;-65
2022/10/01 12:30:21;;;;;;;1999.90;999.90;;;16.60;99.90;;;;;;5111221;27;20433;-64